sensor_id;sensor_type;location;lat;lon;timestamp;P1;durP1;ratioP1;P2;durP2;ratioP2
12650;SDS011;6390;49.400;8.670;2023-03-01T00:00:38;5.97;;;4.68;;
12650;SDS011;6390;49.400;8.670;2023-03-01T00:03:04;5.68;;;4.85;;
12650;SDS011;6390;49.400;8.670;2023-03-01T00:05:30;5.55;;;5.05;;
12650;SDS011;6390;49.400;8.670;2023-03-01T00:07:56;5.22;;;4.63;;
12650;SDS011;6390;49.400;8.670;2023-03-01T00:10:23;5.95;;;4.90;;
12650;SDS011;6390;49.400;8.670;2023-03-01T00:12:49;5.38;;;4.72;;
12650;SDS011;6390;49.400;8.670;2023-03-01T00:15:15;4.93;;;4.30;;
12650;SDS011;6390;49.400;8.670;2023-03-01T00:17:41;5.82;;;4.80;;
12650;SDS011;6390;49.400;8.670;2023-03-01T00:20:07;7.65;;;5.22;;
12650;SDS011;6390;49.400;8.670;2023-03-01T00:22:35;5.75;;;4.82;;
12650;SDS011;6390;49.400;8.670;2023-03-01T00:25:02;5.75;;;4.97;;
12650;SDS011;6390;49.400;8.670;2023-03-01T00:27:29;5.78;;;4.50;;
12650;SDS011;6390;49.400;8.670;2023-03-01T00:29:55;4.97;;;4.15;;
12650;SDS011;6390;49.400;8.670;2023-03-01T00:32:21;6.85;;;4.90;;
12650;SDS011;6390;49.400;8.670;2023-03-01T00:34:47;5.80;;;4.90;;
12650;SDS011;6390;49.400;8.670;2023-03-01T00:37:20;5.25;;;4.50;;
12650;SDS011;6390;49.400;8.670;2023-03-01T00:39:47;4.95;;;4.38;;
12650;SDS011;6390;49.400;8.670;2023-03-01T00:42:13;5.28;;;4.43;;
12650;SDS011;6390;49.400;8.670;2023-03-01T00:44:39;5.55;;;4.68;;
12650;SDS011;6390;49.400;8.670;2023-03-01T00:47:05;6.68;;;4.85;;
12650;SDS011;6390;49.400;8.670;2023-03-01T00:49:31;4.88;;;4.28;;
12650;SDS011;6390;49.400;8.670;2023-03-01T00:51:57;6.63;;;4.50;;
12650;SDS011;6390;49.400;8.670;2023-03-01T00:54:24;5.30;;;4.72;;
12650;SDS011;6390;49.400;8.670;2023-03-01T00:56:50;5.40;;;4.10;;
12650;SDS011;6390;49.400;8.670;2023-03-01T00:59:16;4.32;;;3.92;;
12650;SDS011;6390;49.400;8.670;2023-03-01T01:01:42;4.88;;;4.38;;
12650;SDS011;6390;49.400;8.670;2023-03-01T01:04:09;6.10;;;4.75;;
12650;SDS011;6390;49.400;8.670;2023-03-01T01:06:39;6.90;;;5.10;;
12650;SDS011;6390;49.400;8.670;2023-03-01T01:09:11;5.40;;;4.85;;
12650;SDS011;6390;49.400;8.670;2023-03-01T01:11:43;4.75;;;4.10;;
12650;SDS011;6390;49.400;8.670;2023-03-01T01:14:14;6.32;;;5.20;;
12650;SDS011;6390;49.400;8.670;2023-03-01T01:16:42;6.35;;;5.03;;
12650;SDS011;6390;49.400;8.670;2023-03-01T01:19:09;5.60;;;5.00;;
12650;SDS011;6390;49.400;8.670;2023-03-01T01:21:36;5.05;;;4.47;;
12650;SDS011;6390;49.400;8.670;2023-03-01T01:24:03;7.25;;;5.20;;
12650;SDS011;6390;49.400;8.670;2023-03-01T01:26:32;5.32;;;4.50;;
12650;SDS011;6390;49.400;8.670;2023-03-01T01:28:59;5.47;;;4.78;;
12650;SDS011;6390;49.400;8.670;2023-03-01T01:31:27;5.75;;;5.05;;
12650;SDS011;6390;49.400;8.670;2023-03-01T01:33:54;6.07;;;5.10;;
12650;SDS011;6390;49.400;8.670;2023-03-01T01:36:21;7.75;;;5.50;;
12650;SDS011;6390;49.400;8.670;2023-03-01T01:38:47;5.82;;;4.72;;
12650;SDS011;6390;49.400;8.670;2023-03-01T01:41:13;6.47;;;5.22;;
12650;SDS011;6390;49.400;8.670;2023-03-01T01:43:46;6.70;;;5.03;;
12650;SDS011;6390;49.400;8.670;2023-03-01T01:46:33;6.38;;;5.38;;
12650;SDS011;6390;49.400;8.670;2023-03-01T01:51:49;7.70;;;5.13;;
12650;SDS011;6390;49.400;8.670;2023-03-01T01:57:39;4.93;;;4.43;;
12650;SDS011;6390;49.400;8.670;2023-03-01T02:00:13;5.55;;;4.60;;
12650;SDS011;6390;49.400;8.670;2023-03-01T02:02:44;6.03;;;5.40;;
12650;SDS011;6390;49.400;8.670;2023-03-01T02:05:17;5.68;;;4.38;;
12650;SDS011;6390;49.400;8.670;2023-03-01T02:08:03;4.85;;;4.22;;
12650;SDS011;6390;49.400;8.670;2023-03-01T02:10:31;6.57;;;5.05;;
12650;SDS011;6390;49.400;8.670;2023-03-01T02:13:00;5.38;;;4.50;;
12650;SDS011;6390;49.400;8.670;2023-03-01T02:15:27;6.20;;;4.90;;
12650;SDS011;6390;49.400;8.670;2023-03-01T02:17:58;5.82;;;4.82;;
12650;SDS011;6390;49.400;8.670;2023-03-01T02:23:04;6.30;;;4.60;;
12650;SDS011;6390;49.400;8.670;2023-03-01T02:28:44;7.25;;;6.50;;
12650;SDS011;6390;49.400;8.670;2023-03-01T02:31:10;6.25;;;5.40;;
12650;SDS011;6390;49.400;8.670;2023-03-01T02:34:02;6.50;;;5.80;;
12650;SDS011;6390;49.400;8.670;2023-03-01T02:36:31;6.20;;;5.13;;
12650;SDS011;6390;49.400;8.670;2023-03-01T02:39:03;6.50;;;5.63;;
12650;SDS011;6390;49.400;8.670;2023-03-01T02:41:34;6.35;;;5.40;;
12650;SDS011;6390;49.400;8.670;2023-03-01T02:44:02;6.93;;;5.57;;
12650;SDS011;6390;49.400;8.670;2023-03-01T02:46:29;6.65;;;4.70;;
12650;SDS011;6390;49.400;8.670;2023-03-01T02:48:56;6.68;;;5.28;;
12650;SDS011;6390;49.400;8.670;2023-03-01T02:56:46;7.50;;;4.78;;
12650;SDS011;6390;49.400;8.670;2023-03-01T02:59:13;6.57;;;5.30;;
12650;SDS011;6390;49.400;8.670;2023-03-01T03:01:41;5.93;;;4.68;;
12650;SDS011;6390;49.400;8.670;2023-03-01T03:04:08;5.90;;;4.68;;
12650;SDS011;6390;49.400;8.670;2023-03-01T03:06:45;6.90;;;5.22;;
12650;SDS011;6390;49.400;8.670;2023-03-01T03:09:14;6.72;;;4.88;;
12650;SDS011;6390;49.400;8.670;2023-03-01T03:11:40;6.47;;;4.82;;
12650;SDS011;6390;49.400;8.670;2023-03-01T03:14:08;6.72;;;4.88;;
12650;SDS011;6390;49.400;8.670;2023-03-01T03:16:39;5.28;;;4.35;;
12650;SDS011;6390;49.400;8.670;2023-03-01T03:19:10;5.50;;;4.60;;
12650;SDS011;6390;49.400;8.670;2023-03-01T03:21:37;5.57;;;4.80;;
12650;SDS011;6390;49.400;8.670;2023-03-01T03:24:03;6.10;;;4.75;;
12650;SDS011;6390;49.400;8.670;2023-03-01T03:26:30;5.60;;;4.75;;
12650;SDS011;6390;49.400;8.670;2023-03-01T03:28:56;5.75;;;4.68;;
12650;SDS011;6390;49.400;8.670;2023-03-01T03:31:22;9.05;;;5.10;;
12650;SDS011;6390;49.400;8.670;2023-03-01T03:33:49;5.38;;;4.40;;
12650;SDS011;6390;49.400;8.670;2023-03-01T03:36:19;4.93;;;4.43;;
12650;SDS011;6390;49.400;8.670;2023-03-01T03:38:47;5.00;;;4.50;;
12650;SDS011;6390;49.400;8.670;2023-03-01T03:41:14;7.00;;;5.40;;
12650;SDS011;6390;49.400;8.670;2023-03-01T03:43:41;5.63;;;4.93;;
12650;SDS011;6390;49.400;8.670;2023-03-01T03:46:09;5.45;;;4.53;;
12650;SDS011;6390;49.400;8.670;2023-03-01T03:48:37;5.93;;;4.47;;
12650;SDS011;6390;49.400;8.670;2023-03-01T03:51:06;5.65;;;4.55;;
12650;SDS011;6390;49.400;8.670;2023-03-01T03:53:34;6.00;;;4.78;;
12650;SDS011;6390;49.400;8.670;2023-03-01T03:56:01;6.93;;;4.63;;
12650;SDS011;6390;49.400;8.670;2023-03-01T03:58:27;5.50;;;4.85;;
12650;SDS011;6390;49.400;8.670;2023-03-01T04:00:54;6.82;;;4.75;;
12650;SDS011;6390;49.400;8.670;2023-03-01T04:03:22;6.72;;;5.15;;
12650;SDS011;6390;49.400;8.670;2023-03-01T04:05:50;6.28;;;5.07;;
12650;SDS011;6390;49.400;8.670;2023-03-01T04:08:18;7.10;;;5.05;;
12650;SDS011;6390;49.400;8.670;2023-03-01T04:10:52;7.40;;;5.57;;
12650;SDS011;6390;49.400;8.670;2023-03-01T04:13:24;7.00;;;5.32;;
12650;SDS011;6390;49.400;8.670;2023-03-01T04:15:51;6.50;;;5.45;;
12650;SDS011;6390;49.400;8.670;2023-03-01T04:18:19;7.50;;;5.50;;
12650;SDS011;6390;49.400;8.670;2023-03-01T04:20:47;7.50;;;5.47;;
12650;SDS011;6390;49.400;8.670;2023-03-01T04:23:15;7.50;;;5.97;;
12650;SDS011;6390;49.400;8.670;2023-03-01T04:25:52;6.28;;;5.30;;
12650;SDS011;6390;49.400;8.670;2023-03-01T04:31:06;6.80;;;5.90;;
12650;SDS011;6390;49.400;8.670;2023-03-01T04:36:20;7.65;;;5.70;;
12650;SDS011;6390;49.400;8.670;2023-03-01T04:38:51;7.25;;;5.78;;
12650;SDS011;6390;49.400;8.670;2023-03-01T04:41:18;7.82;;;5.90;;
12650;SDS011;6390;49.400;8.670;2023-03-01T04:43:46;7.07;;;6.00;;
12650;SDS011;6390;49.400;8.670;2023-03-01T04:46:15;8.90;;;6.47;;
12650;SDS011;6390;49.400;8.670;2023-03-01T04:48:44;7.80;;;5.63;;
12650;SDS011;6390;49.400;8.670;2023-03-01T04:51:11;7.47;;;5.80;;
12650;SDS011;6390;49.400;8.670;2023-03-01T04:53:41;6.63;;;5.30;;
12650;SDS011;6390;49.400;8.670;2023-03-01T04:56:08;7.63;;;5.97;;
12650;SDS011;6390;49.400;8.670;2023-03-01T04:58:34;9.15;;;6.32;;
12650;SDS011;6390;49.400;8.670;2023-03-01T05:01:00;6.47;;;5.55;;
12650;SDS011;6390;49.400;8.670;2023-03-01T05:03:26;9.27;;;7.40;;
12650;SDS011;6390;49.400;8.670;2023-03-01T05:05:53;8.45;;;6.90;;
12650;SDS011;6390;49.400;8.670;2023-03-01T05:08:19;7.72;;;6.18;;
12650;SDS011;6390;49.400;8.670;2023-03-01T05:10:49;8.02;;;6.55;;
12650;SDS011;6390;49.400;8.670;2023-03-01T05:13:18;9.30;;;6.55;;
12650;SDS011;6390;49.400;8.670;2023-03-01T05:15:46;8.73;;;7.03;;
12650;SDS011;6390;49.400;8.670;2023-03-01T05:18:14;7.65;;;6.30;;
12650;SDS011;6390;49.400;8.670;2023-03-01T05:20:40;7.57;;;6.47;;
12650;SDS011;6390;49.400;8.670;2023-03-01T05:23:06;8.75;;;7.03;;
12650;SDS011;6390;49.400;8.670;2023-03-01T05:25:33;9.52;;;6.85;;
12650;SDS011;6390;49.400;8.670;2023-03-01T05:28:00;10.32;;;7.18;;
12650;SDS011;6390;49.400;8.670;2023-03-01T05:30:29;7.57;;;6.70;;
12650;SDS011;6390;49.400;8.670;2023-03-01T05:32:57;10.02;;;7.25;;
12650;SDS011;6390;49.400;8.670;2023-03-01T05:35:23;8.55;;;7.20;;
12650;SDS011;6390;49.400;8.670;2023-03-01T05:37:50;7.20;;;6.38;;
12650;SDS011;6390;49.400;8.670;2023-03-01T05:40:21;7.28;;;6.32;;
12650;SDS011;6390;49.400;8.670;2023-03-01T05:42:50;7.78;;;6.25;;
12650;SDS011;6390;49.400;8.670;2023-03-01T05:45:20;7.97;;;6.75;;
12650;SDS011;6390;49.400;8.670;2023-03-01T05:47:49;8.52;;;6.25;;
12650;SDS011;6390;49.400;8.670;2023-03-01T05:50:22;9.63;;;7.07;;
12650;SDS011;6390;49.400;8.670;2023-03-01T05:52:56;7.95;;;6.82;;
12650;SDS011;6390;49.400;8.670;2023-03-01T05:55:32;8.82;;;7.40;;
12650;SDS011;6390;49.400;8.670;2023-03-01T05:58:04;9.35;;;7.05;;
12650;SDS011;6390;49.400;8.670;2023-03-01T06:00:32;8.02;;;6.93;;
12650;SDS011;6390;49.400;8.670;2023-03-01T06:02:59;10.50;;;8.20;;
12650;SDS011;6390;49.400;8.670;2023-03-01T06:05:26;8.85;;;7.07;;
12650;SDS011;6390;49.400;8.670;2023-03-01T06:07:53;8.63;;;7.28;;
12650;SDS011;6390;49.400;8.670;2023-03-01T06:10:20;11.40;;;7.85;;
12650;SDS011;6390;49.400;8.670;2023-03-01T06:12:47;9.23;;;7.50;;
12650;SDS011;6390;49.400;8.670;2023-03-01T06:15:14;9.80;;;7.03;;
12650;SDS011;6390;49.400;8.670;2023-03-01T06:17:42;8.48;;;7.15;;
12650;SDS011;6390;49.400;8.670;2023-03-01T06:20:14;8.00;;;6.85;;
12650;SDS011;6390;49.400;8.670;2023-03-01T06:22:43;9.20;;;7.10;;
12650;SDS011;6390;49.400;8.670;2023-03-01T06:25:10;10.13;;;7.65;;
12650;SDS011;6390;49.400;8.670;2023-03-01T06:27:38;9.88;;;7.68;;
12650;SDS011;6390;49.400;8.670;2023-03-01T06:30:05;7.22;;;6.47;;
12650;SDS011;6390;49.400;8.670;2023-03-01T06:32:32;9.32;;;7.45;;
12650;SDS011;6390;49.400;8.670;2023-03-01T06:34:58;9.43;;;6.97;;
12650;SDS011;6390;49.400;8.670;2023-03-01T06:37:25;9.45;;;7.20;;
12650;SDS011;6390;49.400;8.670;2023-03-01T06:39:51;8.48;;;6.90;;
12650;SDS011;6390;49.400;8.670;2023-03-01T06:42:17;8.07;;;6.70;;
12650;SDS011;6390;49.400;8.670;2023-03-01T06:44:44;9.18;;;7.28;;
12650;SDS011;6390;49.400;8.670;2023-03-01T06:47:10;8.07;;;6.45;;
12650;SDS011;6390;49.400;8.670;2023-03-01T06:49:36;9.98;;;7.18;;
12650;SDS011;6390;49.400;8.670;2023-03-01T06:52:03;9.82;;;7.00;;
12650;SDS011;6390;49.400;8.670;2023-03-01T06:54:29;7.55;;;6.13;;
12650;SDS011;6390;49.400;8.670;2023-03-01T06:56:55;9.18;;;6.75;;
12650;SDS011;6390;49.400;8.670;2023-03-01T06:59:21;8.77;;;7.07;;
12650;SDS011;6390;49.400;8.670;2023-03-01T07:01:47;8.57;;;6.43;;
12650;SDS011;6390;49.400;8.670;2023-03-01T07:04:13;8.63;;;7.20;;
12650;SDS011;6390;49.400;8.670;2023-03-01T07:06:39;7.72;;;6.38;;
12650;SDS011;6390;49.400;8.670;2023-03-01T07:09:05;9.63;;;6.68;;
12650;SDS011;6390;49.400;8.670;2023-03-01T07:11:31;8.25;;;6.28;;
12650;SDS011;6390;49.400;8.670;2023-03-01T07:13:58;7.13;;;6.38;;
12650;SDS011;6390;49.400;8.670;2023-03-01T07:16:25;6.50;;;5.70;;
12650;SDS011;6390;49.400;8.670;2023-03-01T07:18:51;7.38;;;6.07;;
12650;SDS011;6390;49.400;8.670;2023-03-01T07:21:17;6.88;;;5.85;;
12650;SDS011;6390;49.400;8.670;2023-03-01T07:23:43;7.82;;;6.00;;
12650;SDS011;6390;49.400;8.670;2023-03-01T07:26:11;7.28;;;6.22;;
12650;SDS011;6390;49.400;8.670;2023-03-01T07:28:37;7.60;;;5.97;;
12650;SDS011;6390;49.400;8.670;2023-03-01T07:31:05;9.63;;;6.80;;
12650;SDS011;6390;49.400;8.670;2023-03-01T07:33:32;9.80;;;6.63;;
12650;SDS011;6390;49.400;8.670;2023-03-01T07:36:02;6.80;;;5.90;;
12650;SDS011;6390;49.400;8.670;2023-03-01T07:38:29;9.85;;;7.30;;
12650;SDS011;6390;49.400;8.670;2023-03-01T07:40:59;8.30;;;6.80;;
12650;SDS011;6390;49.400;8.670;2023-03-01T07:43:27;7.38;;;6.18;;
12650;SDS011;6390;49.400;8.670;2023-03-01T07:45:57;8.30;;;6.40;;
12650;SDS011;6390;49.400;8.670;2023-03-01T07:48:25;9.35;;;7.53;;
12650;SDS011;6390;49.400;8.670;2023-03-01T07:50:51;9.13;;;6.50;;
12650;SDS011;6390;49.400;8.670;2023-03-01T07:53:17;8.52;;;6.85;;
12650;SDS011;6390;49.400;8.670;2023-03-01T07:55:43;8.43;;;6.53;;
12650;SDS011;6390;49.400;8.670;2023-03-01T07:58:10;9.57;;;7.20;;
12650;SDS011;6390;49.400;8.670;2023-03-01T08:00:36;7.30;;;6.47;;
12650;SDS011;6390;49.400;8.670;2023-03-01T08:03:02;7.63;;;6.22;;
12650;SDS011;6390;49.400;8.670;2023-03-01T08:05:28;8.00;;;6.82;;
12650;SDS011;6390;49.400;8.670;2023-03-01T08:07:55;6.93;;;6.10;;
12650;SDS011;6390;49.400;8.670;2023-03-01T08:10:21;8.60;;;7.32;;
12650;SDS011;6390;49.400;8.670;2023-03-01T08:12:47;7.82;;;6.90;;
12650;SDS011;6390;49.400;8.670;2023-03-01T08:15:15;8.85;;;7.05;;
12650;SDS011;6390;49.400;8.670;2023-03-01T08:17:43;8.98;;;7.45;;
12650;SDS011;6390;49.400;8.670;2023-03-01T08:20:09;11.18;;;8.23;;
12650;SDS011;6390;49.400;8.670;2023-03-01T08:22:37;11.98;;;8.15;;
12650;SDS011;6390;49.400;8.670;2023-03-01T08:25:03;10.82;;;7.90;;
12650;SDS011;6390;49.400;8.670;2023-03-01T08:27:30;10.07;;;8.13;;
12650;SDS011;6390;49.400;8.670;2023-03-01T08:29:56;8.43;;;7.25;;
12650;SDS011;6390;49.400;8.670;2023-03-01T08:32:22;9.98;;;7.88;;
12650;SDS011;6390;49.400;8.670;2023-03-01T08:34:48;10.68;;;7.40;;
12650;SDS011;6390;49.400;8.670;2023-03-01T08:37:14;9.13;;;7.47;;
12650;SDS011;6390;49.400;8.670;2023-03-01T08:39:40;9.50;;;7.32;;
12650;SDS011;6390;49.400;8.670;2023-03-01T08:42:06;9.57;;;7.45;;
12650;SDS011;6390;49.400;8.670;2023-03-01T08:44:32;9.70;;;7.82;;
12650;SDS011;6390;49.400;8.670;2023-03-01T08:46:59;9.30;;;7.55;;
12650;SDS011;6390;49.400;8.670;2023-03-01T08:49:27;9.55;;;7.95;;
12650;SDS011;6390;49.400;8.670;2023-03-01T08:51:53;9.65;;;7.82;;
12650;SDS011;6390;49.400;8.670;2023-03-01T08:54:20;8.90;;;7.45;;
12650;SDS011;6390;49.400;8.670;2023-03-01T08:56:47;11.27;;;7.75;;
12650;SDS011;6390;49.400;8.670;2023-03-01T08:59:14;9.57;;;8.32;;
12650;SDS011;6390;49.400;8.670;2023-03-01T09:01:42;8.82;;;7.40;;
12650;SDS011;6390;49.400;8.670;2023-03-01T09:04:08;9.43;;;7.75;;
12650;SDS011;6390;49.400;8.670;2023-03-01T09:06:38;9.25;;;7.32;;
12650;SDS011;6390;49.400;8.670;2023-03-01T09:09:04;9.93;;;7.63;;
12650;SDS011;6390;49.400;8.670;2023-03-01T09:11:31;10.32;;;8.13;;
12650;SDS011;6390;49.400;8.670;2023-03-01T09:13:58;9.45;;;7.30;;
12650;SDS011;6390;49.400;8.670;2023-03-01T09:16:24;9.60;;;8.27;;
12650;SDS011;6390;49.400;8.670;2023-03-01T09:18:51;8.93;;;7.68;;
12650;SDS011;6390;49.400;8.670;2023-03-01T09:21:20;9.68;;;8.35;;
12650;SDS011;6390;49.400;8.670;2023-03-01T09:23:48;9.52;;;8.07;;
12650;SDS011;6390;49.400;8.670;2023-03-01T09:26:15;9.38;;;7.72;;
12650;SDS011;6390;49.400;8.670;2023-03-01T09:28:47;11.57;;;8.57;;
12650;SDS011;6390;49.400;8.670;2023-03-01T09:31:16;9.63;;;8.40;;
12650;SDS011;6390;49.400;8.670;2023-03-01T09:33:45;10.48;;;8.73;;
12650;SDS011;6390;49.400;8.670;2023-03-01T09:36:14;10.55;;;9.00;;
12650;SDS011;6390;49.400;8.670;2023-03-01T09:38:42;11.15;;;8.50;;
12650;SDS011;6390;49.400;8.670;2023-03-01T09:41:10;11.18;;;8.85;;
12650;SDS011;6390;49.400;8.670;2023-03-01T09:44:04;9.65;;;8.23;;
12650;SDS011;6390;49.400;8.670;2023-03-01T09:46:56;9.60;;;8.25;;
12650;SDS011;6390;49.400;8.670;2023-03-01T09:49:35;10.55;;;8.68;;
12650;SDS011;6390;49.400;8.670;2023-03-01T09:55:11;9.55;;;8.35;;
12650;SDS011;6390;49.400;8.670;2023-03-01T09:57:53;10.45;;;9.05;;
12650;SDS011;6390;49.400;8.670;2023-03-01T10:03:16;9.50;;;8.50;;
12650;SDS011;6390;49.400;8.670;2023-03-01T10:06:04;10.98;;;8.40;;
12650;SDS011;6390;49.400;8.670;2023-03-01T10:11:20;10.25;;;8.55;;
12650;SDS011;6390;49.400;8.670;2023-03-01T10:16:40;10.38;;;8.82;;
12650;SDS011;6390;49.400;8.670;2023-03-01T10:19:15;10.18;;;8.82;;
12650;SDS011;6390;49.400;8.670;2023-03-01T10:21:48;10.77;;;8.52;;
12650;SDS011;6390;49.400;8.670;2023-03-01T10:24:17;12.02;;;9.13;;
12650;SDS011;6390;49.400;8.670;2023-03-01T10:29:23;12.27;;;9.02;;
12650;SDS011;6390;49.400;8.670;2023-03-01T10:31:59;11.40;;;9.35;;
12650;SDS011;6390;49.400;8.670;2023-03-01T10:34:31;12.80;;;9.02;;
12650;SDS011;6390;49.400;8.670;2023-03-01T10:37:10;11.63;;;9.52;;
12650;SDS011;6390;49.400;8.670;2023-03-01T10:42:34;12.27;;;9.10;;
12650;SDS011;6390;49.400;8.670;2023-03-01T10:45:15;12.82;;;9.48;;
12650;SDS011;6390;49.400;8.670;2023-03-01T10:50:43;10.95;;;8.60;;
12650;SDS011;6390;49.400;8.670;2023-03-01T10:53:21;12.15;;;9.40;;
12650;SDS011;6390;49.400;8.670;2023-03-01T10:56:08;11.15;;;9.27;;
12650;SDS011;6390;49.400;8.670;2023-03-01T10:58:39;11.02;;;8.45;;
12650;SDS011;6390;49.400;8.670;2023-03-01T11:01:34;9.52;;;8.52;;
12650;SDS011;6390;49.400;8.670;2023-03-01T11:06:33;10.25;;;8.90;;
12650;SDS011;6390;49.400;8.670;2023-03-01T11:09:15;9.75;;;8.45;;
12650;SDS011;6390;49.400;8.670;2023-03-01T11:11:52;10.27;;;8.38;;
12650;SDS011;6390;49.400;8.670;2023-03-01T11:14:24;10.98;;;8.75;;
12650;SDS011;6390;49.400;8.670;2023-03-01T11:19:31;11.75;;;8.85;;
12650;SDS011;6390;49.400;8.670;2023-03-01T11:21:59;12.00;;;8.98;;
12650;SDS011;6390;49.400;8.670;2023-03-01T11:24:33;11.15;;;9.25;;
12650;SDS011;6390;49.400;8.670;2023-03-01T11:27:08;10.38;;;8.30;;
12650;SDS011;6390;49.400;8.670;2023-03-01T11:29:45;10.40;;;8.50;;
12650;SDS011;6390;49.400;8.670;2023-03-01T11:32:16;10.30;;;8.98;;
12650;SDS011;6390;49.400;8.670;2023-03-01T11:34:52;10.40;;;8.32;;
12650;SDS011;6390;49.400;8.670;2023-03-01T11:37:37;10.30;;;8.18;;
12650;SDS011;6390;49.400;8.670;2023-03-01T11:40:17;10.80;;;8.20;;
12650;SDS011;6390;49.400;8.670;2023-03-01T11:42:52;10.93;;;8.73;;
12650;SDS011;6390;49.400;8.670;2023-03-01T11:45:36;10.35;;;8.75;;
12650;SDS011;6390;49.400;8.670;2023-03-01T11:48:30;10.48;;;8.25;;
12650;SDS011;6390;49.400;8.670;2023-03-01T11:51:05;11.27;;;8.23;;
12650;SDS011;6390;49.400;8.670;2023-03-01T11:56:54;10.95;;;8.32;;
12650;SDS011;6390;49.400;8.670;2023-03-01T12:05:22;11.60;;;8.52;;
12650;SDS011;6390;49.400;8.670;2023-03-01T12:08:17;9.93;;;7.80;;
12650;SDS011;6390;49.400;8.670;2023-03-01T12:11:17;10.10;;;8.20;;
12650;SDS011;6390;49.400;8.670;2023-03-01T12:14:17;11.98;;;9.32;;
12650;SDS011;6390;49.400;8.670;2023-03-01T12:17:18;10.15;;;8.40;;
12650;SDS011;6390;49.400;8.670;2023-03-01T12:33:47;9.93;;;8.32;;
12650;SDS011;6390;49.400;8.670;2023-03-01T12:36:34;8.10;;;6.90;;
12650;SDS011;6390;49.400;8.670;2023-03-01T12:47:46;9.18;;;7.68;;
12650;SDS011;6390;49.400;8.670;2023-03-01T12:50:35;8.55;;;7.65;;
12650;SDS011;6390;49.400;8.670;2023-03-01T12:53:14;10.15;;;8.18;;
12650;SDS011;6390;49.400;8.670;2023-03-01T12:55:50;9.90;;;8.18;;
12650;SDS011;6390;49.400;8.670;2023-03-01T12:58:29;10.15;;;8.55;;
12650;SDS011;6390;49.400;8.670;2023-03-01T13:15:24;11.05;;;7.28;;
12650;SDS011;6390;49.400;8.670;2023-03-01T13:20:27;8.02;;;6.57;;
12650;SDS011;6390;49.400;8.670;2023-03-01T13:25:32;8.70;;;7.13;;
12650;SDS011;6390;49.400;8.670;2023-03-01T13:28:32;9.07;;;7.53;;
12650;SDS011;6390;49.400;8.670;2023-03-01T13:31:03;10.15;;;7.25;;
12650;SDS011;6390;49.400;8.670;2023-03-01T13:35:59;8.48;;;7.28;;
12650;SDS011;6390;49.400;8.670;2023-03-01T13:46:49;8.52;;;6.35;;
12650;SDS011;6390;49.400;8.670;2023-03-01T13:49:21;7.32;;;6.57;;
12650;SDS011;6390;49.400;8.670;2023-03-01T13:51:54;7.53;;;6.10;;
12650;SDS011;6390;49.400;8.670;2023-03-01T13:54:25;8.52;;;6.38;;
12650;SDS011;6390;49.400;8.670;2023-03-01T13:56:57;9.20;;;6.60;;
12650;SDS011;6390;49.400;8.670;2023-03-01T13:59:25;7.72;;;6.60;;
12650;SDS011;6390;49.400;8.670;2023-03-01T14:01:54;7.95;;;6.88;;
12650;SDS011;6390;49.400;8.670;2023-03-01T14:04:27;7.43;;;6.55;;
12650;SDS011;6390;49.400;8.670;2023-03-01T14:07:18;8.70;;;6.78;;
12650;SDS011;6390;49.400;8.670;2023-03-01T14:09:52;8.27;;;6.55;;
12650;SDS011;6390;49.400;8.670;2023-03-01T14:12:36;7.55;;;6.40;;
12650;SDS011;6390;49.400;8.670;2023-03-01T14:15:27;7.50;;;6.15;;
12650;SDS011;6390;49.400;8.670;2023-03-01T14:18:00;7.57;;;5.97;;
12650;SDS011;6390;49.400;8.670;2023-03-01T14:20:52;9.88;;;6.75;;
12650;SDS011;6390;49.400;8.670;2023-03-01T14:23:19;9.75;;;6.50;;
12650;SDS011;6390;49.400;8.670;2023-03-01T14:25:47;7.68;;;6.50;;
12650;SDS011;6390;49.400;8.670;2023-03-01T14:28:21;7.40;;;6.65;;
12650;SDS011;6390;49.400;8.670;2023-03-01T14:30:51;8.57;;;6.47;;
12650;SDS011;6390;49.400;8.670;2023-03-01T14:41:03;6.80;;;6.10;;
12650;SDS011;6390;49.400;8.670;2023-03-01T14:43:41;7.97;;;6.22;;
12650;SDS011;6390;49.400;8.670;2023-03-01T14:46:17;8.15;;;6.38;;
12650;SDS011;6390;49.400;8.670;2023-03-01T14:48:54;8.15;;;6.13;;
12650;SDS011;6390;49.400;8.670;2023-03-01T14:51:45;6.80;;;5.32;;
12650;SDS011;6390;49.400;8.670;2023-03-01T14:54:27;5.82;;;5.22;;
12650;SDS011;6390;49.400;8.670;2023-03-01T14:57:00;6.00;;;5.40;;
12650;SDS011;6390;49.400;8.670;2023-03-01T14:59:27;7.05;;;6.10;;
12650;SDS011;6390;49.400;8.670;2023-03-01T15:01:55;6.35;;;5.63;;
12650;SDS011;6390;49.400;8.670;2023-03-01T15:04:23;6.75;;;6.05;;
12650;SDS011;6390;49.400;8.670;2023-03-01T15:06:51;6.95;;;5.50;;
12650;SDS011;6390;49.400;8.670;2023-03-01T15:09:19;6.65;;;5.68;;
12650;SDS011;6390;49.400;8.670;2023-03-01T15:11:45;7.75;;;5.65;;
12650;SDS011;6390;49.400;8.670;2023-03-01T15:17:17;7.28;;;5.55;;
12650;SDS011;6390;49.400;8.670;2023-03-01T15:19:51;6.50;;;5.25;;
12650;SDS011;6390;49.400;8.670;2023-03-01T15:22:18;6.55;;;5.85;;
12650;SDS011;6390;49.400;8.670;2023-03-01T15:24:50;5.78;;;5.15;;
12650;SDS011;6390;49.400;8.670;2023-03-01T15:27:17;7.03;;;5.22;;
12650;SDS011;6390;49.400;8.670;2023-03-01T15:29:59;6.35;;;5.53;;
12650;SDS011;6390;49.400;8.670;2023-03-01T15:34:59;5.57;;;4.60;;
12650;SDS011;6390;49.400;8.670;2023-03-01T15:37:44;7.35;;;5.40;;
12650;SDS011;6390;49.400;8.670;2023-03-01T15:40:19;6.97;;;5.03;;
12650;SDS011;6390;49.400;8.670;2023-03-01T15:42:58;8.23;;;5.03;;
12650;SDS011;6390;49.400;8.670;2023-03-01T15:45:26;6.53;;;5.22;;
12650;SDS011;6390;49.400;8.670;2023-03-01T15:47:55;5.97;;;4.90;;
12650;SDS011;6390;49.400;8.670;2023-03-01T15:50:27;7.75;;;4.95;;
12650;SDS011;6390;49.400;8.670;2023-03-01T15:52:57;6.78;;;5.15;;
12650;SDS011;6390;49.400;8.670;2023-03-01T15:55:26;6.13;;;5.15;;
12650;SDS011;6390;49.400;8.670;2023-03-01T15:57:57;6.32;;;5.00;;
12650;SDS011;6390;49.400;8.670;2023-03-01T16:00:26;6.25;;;5.32;;
12650;SDS011;6390;49.400;8.670;2023-03-01T16:02:53;6.75;;;4.95;;
12650;SDS011;6390;49.400;8.670;2023-03-01T16:05:20;6.57;;;4.72;;
12650;SDS011;6390;49.400;8.670;2023-03-01T16:07:52;5.10;;;4.43;;
12650;SDS011;6390;49.400;8.670;2023-03-01T16:10:19;6.18;;;4.90;;
12650;SDS011;6390;49.400;8.670;2023-03-01T16:12:45;5.85;;;4.90;;
12650;SDS011;6390;49.400;8.670;2023-03-01T16:15:21;5.95;;;4.57;;
12650;SDS011;6390;49.400;8.670;2023-03-01T16:17:52;7.50;;;4.60;;
12650;SDS011;6390;49.400;8.670;2023-03-01T16:20:19;5.53;;;4.50;;
12650;SDS011;6390;49.400;8.670;2023-03-01T16:22:45;6.18;;;5.03;;
12650;SDS011;6390;49.400;8.670;2023-03-01T16:25:12;7.97;;;5.43;;
12650;SDS011;6390;49.400;8.670;2023-03-01T16:27:43;5.38;;;4.78;;
12650;SDS011;6390;49.400;8.670;2023-03-01T16:30:13;5.68;;;4.95;;
12650;SDS011;6390;49.400;8.670;2023-03-01T16:32:44;6.47;;;4.85;;
12650;SDS011;6390;49.400;8.670;2023-03-01T16:35:12;5.97;;;4.88;;
12650;SDS011;6390;49.400;8.670;2023-03-01T16:37:42;5.18;;;4.68;;
12650;SDS011;6390;49.400;8.670;2023-03-01T16:40:24;5.88;;;4.70;;
12650;SDS011;6390;49.400;8.670;2023-03-01T16:42:55;6.25;;;4.78;;
12650;SDS011;6390;49.400;8.670;2023-03-01T16:45:25;6.25;;;4.68;;
12650;SDS011;6390;49.400;8.670;2023-03-01T16:47:53;6.43;;;4.53;;
12650;SDS011;6390;49.400;8.670;2023-03-01T16:50:19;5.82;;;4.28;;
12650;SDS011;6390;49.400;8.670;2023-03-01T16:52:45;5.07;;;4.55;;
12650;SDS011;6390;49.400;8.670;2023-03-01T16:55:11;5.53;;;4.78;;
12650;SDS011;6390;49.400;8.670;2023-03-01T16:57:37;5.95;;;4.90;;
12650;SDS011;6390;49.400;8.670;2023-03-01T17:00:04;6.10;;;4.60;;
12650;SDS011;6390;49.400;8.670;2023-03-01T17:02:32;6.72;;;4.70;;
12650;SDS011;6390;49.400;8.670;2023-03-01T17:05:02;5.60;;;4.95;;
12650;SDS011;6390;49.400;8.670;2023-03-01T17:07:30;5.72;;;4.40;;
12650;SDS011;6390;49.400;8.670;2023-03-01T17:10:00;6.43;;;4.75;;
12650;SDS011;6390;49.400;8.670;2023-03-01T17:12:29;5.70;;;4.47;;
12650;SDS011;6390;49.400;8.670;2023-03-01T17:14:56;5.95;;;4.70;;
12650;SDS011;6390;49.400;8.670;2023-03-01T17:17:23;6.65;;;4.75;;
12650;SDS011;6390;49.400;8.670;2023-03-01T17:19:49;8.88;;;4.15;;
12650;SDS011;6390;49.400;8.670;2023-03-01T17:22:15;5.72;;;4.03;;